Pagina principale
METAR-TAF:

METAR-TAF

Aeroporti :

Montichiari

Brescia, Italia

latitudine: 45-24-02N, longitudine: 010-18-59E, altezza: 104 m

Osservazione

Il bollettino è stato emesso 23 minuti fa, alle 15:20 UTC
Vento 5 kt da ovest/sud-ovest
Temperature 22°C
Umidità 53%
Pressione 998 hPa
Visibilità 10 km o più

METAR: LIPO 271520Z AUTO 25005KT 9999 NCD 22/12 Q0998

Ora: 17:43 (15:43 UTC)

Previsione

Il bollettino è stato emesso 4 ore e 43 minuti fa, alle 11:00 UTC
Previsione valida dal 27 alle 12 UTC al 28 alle 12 UTC
Vento 12 kt da ovest
Visibilità 10 km o più
Poco nuvoloso ad un'altezza di 5000 ft
Evoluzione graduale
dal 27 alle 19 UTC al 27 alle 21 UTC
Vento 6 kt da est

TAF: LIPO 271100Z 2712/2812 26012KT 9999 FEW050 BECMG 2719/2721 08006KT

Osservazioni e previsioni meteorologiche di più di 4000 aeroporti (messaggi METAR e TAF).

Le stazioni disponibili sono rappresentate dai dischi gialli e rossi sulla carta.

Puntare il mouse per vedere il nome della stazione.

Clicca sopra per visualizzare le osservazioni e previsioni meteorologiche.

Per cambiare la mappa : fare clic sui pulsanti verdi con una croce nera per ingrandire, il pulsante verde con un trattino per diminuire, o sulla freccia verde per le mappe adiacenti.


METAR-TAF: